sensor_id;sensor_type;location;lat;lon;timestamp;P1;durP1;ratioP1;P2;durP2;ratioP2
40367;SDS011;26075;43.320;21.920;2023-01-28T00:05:43;26.27;;;18.70;;
40367;SDS011;26075;43.320;21.920;2023-01-28T00:10:44;23.20;;;17.10;;
40367;SDS011;26075;43.320;21.920;2023-01-28T00:21:13;24.70;;;17.33;;
40367;SDS011;26075;43.320;21.920;2023-01-28T00:26:14;24.90;;;18.33;;
40367;SDS011;26075;43.320;21.920;2023-01-28T00:31:19;25.00;;;18.58;;
40367;SDS011;26075;43.320;21.920;2023-01-28T00:47:56;25.13;;;17.98;;
40367;SDS011;26075;43.320;21.920;2023-01-28T00:52:57;24.52;;;17.55;;
40367;SDS011;26075;43.320;21.920;2023-01-28T00:57:58;27.40;;;18.58;;
40367;SDS011;26075;43.320;21.920;2023-01-28T01:02:59;28.52;;;19.10;;
40367;SDS011;26075;43.320;21.920;2023-01-28T01:08:00;24.30;;;17.85;;
40367;SDS011;26075;43.320;21.920;2023-01-28T01:13:01;25.80;;;17.52;;
40367;SDS011;26075;43.320;21.920;2023-01-28T01:24:05;25.17;;;18.05;;
40367;SDS011;26075;43.320;21.920;2023-01-28T01:29:06;23.42;;;16.50;;
40367;SDS011;26075;43.320;21.920;2023-01-28T01:34:08;30.58;;;17.80;;
40367;SDS011;26075;43.320;21.920;2023-01-28T02:00:59;22.98;;;16.38;;
40367;SDS011;26075;43.320;21.920;2023-01-28T02:06:00;22.23;;;15.65;;
40367;SDS011;26075;43.320;21.920;2023-01-28T02:11:01;21.33;;;15.93;;
40367;SDS011;26075;43.320;21.920;2023-01-28T02:16:05;21.67;;;15.55;;
40367;SDS011;26075;43.320;21.920;2023-01-28T02:37:22;22.48;;;16.45;;
40367;SDS011;26075;43.320;21.920;2023-01-28T02:42:29;22.70;;;16.63;;
40367;SDS011;26075;43.320;21.920;2023-01-28T02:47:32;22.67;;;16.58;;
40367;SDS011;26075;43.320;21.920;2023-01-28T02:52:59;23.13;;;15.63;;
40367;SDS011;26075;43.320;21.920;2023-01-28T02:58:37;21.27;;;15.55;;
40367;SDS011;26075;43.320;21.920;2023-01-28T03:04:31;22.60;;;16.23;;
40367;SDS011;26075;43.320;21.920;2023-01-28T03:09:39;26.95;;;16.48;;
40367;SDS011;26075;43.320;21.920;2023-01-28T03:14:44;23.38;;;16.35;;
40367;SDS011;26075;43.320;21.920;2023-01-28T03:20:07;21.15;;;15.23;;
40367;SDS011;26075;43.320;21.920;2023-01-28T03:25:27;22.25;;;15.88;;
40367;SDS011;26075;43.320;21.920;2023-01-28T03:36:15;20.48;;;14.95;;
40367;SDS011;26075;43.320;21.920;2023-01-28T03:41:34;19.88;;;15.02;;
40367;SDS011;26075;43.320;21.920;2023-01-28T03:46:35;21.30;;;15.10;;
40367;SDS011;26075;43.320;21.920;2023-01-28T03:51:38;20.63;;;14.70;;
40367;SDS011;26075;43.320;21.920;2023-01-28T03:56:39;22.73;;;15.32;;
40367;SDS011;26075;43.320;21.920;2023-01-28T04:01:40;23.48;;;15.52;;
40367;SDS011;26075;43.320;21.920;2023-01-28T04:06:41;20.67;;;14.85;;
40367;SDS011;26075;43.320;21.920;2023-01-28T04:11:42;20.33;;;14.38;;
40367;SDS011;26075;43.320;21.920;2023-01-28T04:16:44;18.83;;;13.70;;
40367;SDS011;26075;43.320;21.920;2023-01-28T04:27:41;23.25;;;15.88;;
40367;SDS011;26075;43.320;21.920;2023-01-28T04:38:39;22.05;;;15.00;;
40367;SDS011;26075;43.320;21.920;2023-01-28T04:43:40;20.77;;;14.38;;
40367;SDS011;26075;43.320;21.920;2023-01-28T04:48:41;22.75;;;15.23;;
40367;SDS011;26075;43.320;21.920;2023-01-28T04:53:42;20.92;;;15.43;;
40367;SDS011;26075;43.320;21.920;2023-01-28T04:58:43;21.02;;;14.48;;
40367;SDS011;26075;43.320;21.920;2023-01-28T05:09:41;20.33;;;14.20;;
40367;SDS011;26075;43.320;21.920;2023-01-28T05:14:42;22.67;;;15.38;;
40367;SDS011;26075;43.320;21.920;2023-01-28T05:19:43;23.33;;;16.33;;
40367;SDS011;26075;43.320;21.920;2023-01-28T05:24:45;21.45;;;14.77;;
40367;SDS011;26075;43.320;21.920;2023-01-28T05:29:46;22.98;;;15.63;;
40367;SDS011;26075;43.320;21.920;2023-01-28T05:34:47;23.15;;;16.27;;
40367;SDS011;26075;43.320;21.920;2023-01-28T05:39:48;20.15;;;14.85;;
40367;SDS011;26075;43.320;21.920;2023-01-28T05:44:49;20.13;;;14.27;;
40367;SDS011;26075;43.320;21.920;2023-01-28T05:49:50;20.48;;;13.88;;
40367;SDS011;26075;43.320;21.920;2023-01-28T05:54:51;20.23;;;14.60;;
40367;SDS011;26075;43.320;21.920;2023-01-28T05:59:52;19.52;;;14.20;;
40367;SDS011;26075;43.320;21.920;2023-01-28T06:04:53;20.45;;;14.85;;
40367;SDS011;26075;43.320;21.920;2023-01-28T06:09:54;18.33;;;13.05;;
40367;SDS011;26075;43.320;21.920;2023-01-28T06:14:55;20.63;;;14.13;;
40367;SDS011;26075;43.320;21.920;2023-01-28T06:19:56;19.75;;;13.75;;
40367;SDS011;26075;43.320;21.920;2023-01-28T06:24:57;20.15;;;14.32;;
40367;SDS011;26075;43.320;21.920;2023-01-28T06:29:58;19.95;;;14.63;;
40367;SDS011;26075;43.320;21.920;2023-01-28T06:34:59;23.10;;;15.85;;
40367;SDS011;26075;43.320;21.920;2023-01-28T06:40:01;24.40;;;15.45;;
40367;SDS011;26075;43.320;21.920;2023-01-28T06:50:59;24.85;;;16.27;;
40367;SDS011;26075;43.320;21.920;2023-01-28T06:56:00;21.48;;;15.82;;
40367;SDS011;26075;43.320;21.920;2023-01-28T07:01:01;21.75;;;15.60;;
40367;SDS011;26075;43.320;21.920;2023-01-28T07:06:02;23.98;;;16.88;;
40367;SDS011;26075;43.320;21.920;2023-01-28T07:11:04;27.25;;;17.77;;
40367;SDS011;26075;43.320;21.920;2023-01-28T07:32:53;27.45;;;18.80;;
40367;SDS011;26075;43.320;21.920;2023-01-28T07:38:11;27.40;;;18.63;;
40367;SDS011;26075;43.320;21.920;2023-01-28T07:43:12;25.58;;;17.90;;
40367;SDS011;26075;43.320;21.920;2023-01-28T07:48:13;27.75;;;20.38;;
40367;SDS011;26075;43.320;21.920;2023-01-28T07:53:14;26.23;;;19.08;;
40367;SDS011;26075;43.320;21.920;2023-01-28T07:58:15;29.00;;;19.10;;
40367;SDS011;26075;43.320;21.920;2023-01-28T08:03:16;28.00;;;19.77;;
40367;SDS011;26075;43.320;21.920;2023-01-28T08:08:17;28.50;;;19.50;;
40367;SDS011;26075;43.320;21.920;2023-01-28T08:13:18;26.92;;;18.38;;
40367;SDS011;26075;43.320;21.920;2023-01-28T08:18:19;27.67;;;19.35;;
40367;SDS011;26075;43.320;21.920;2023-01-28T08:23:20;34.20;;;22.98;;
40367;SDS011;26075;43.320;21.920;2023-01-28T08:28:21;28.17;;;18.80;;
40367;SDS011;26075;43.320;21.920;2023-01-28T08:33:22;24.73;;;15.90;;
40367;SDS011;26075;43.320;21.920;2023-01-28T08:44:20;20.45;;;15.10;;
40367;SDS011;26075;43.320;21.920;2023-01-28T08:49:21;21.92;;;16.58;;
40367;SDS011;26075;43.320;21.920;2023-01-28T08:54:22;24.73;;;16.90;;
40367;SDS011;26075;43.320;21.920;2023-01-28T09:05:20;27.17;;;19.75;;
40367;SDS011;26075;43.320;21.920;2023-01-28T09:10:21;25.80;;;17.58;;
40367;SDS011;26075;43.320;21.920;2023-01-28T09:15:22;26.63;;;16.92;;
40367;SDS011;26075;43.320;21.920;2023-01-28T09:20:23;23.25;;;15.65;;
40367;SDS011;26075;43.320;21.920;2023-01-28T09:25:34;19.15;;;15.00;;
40367;SDS011;26075;43.320;21.920;2023-01-28T09:36:16;23.58;;;16.02;;
40367;SDS011;26075;43.320;21.920;2023-01-28T09:41:25;20.58;;;14.55;;
40367;SDS011;26075;43.320;21.920;2023-01-28T09:46:30;24.58;;;15.35;;
40367;SDS011;26075;43.320;21.920;2023-01-28T09:51:39;20.75;;;15.18;;
40367;SDS011;26075;43.320;21.920;2023-01-28T09:56:42;21.48;;;15.13;;
40367;SDS011;26075;43.320;21.920;2023-01-28T10:01:53;25.75;;;17.08;;
40367;SDS011;26075;43.320;21.920;2023-01-28T10:18:10;25.67;;;17.05;;
40367;SDS011;26075;43.320;21.920;2023-01-28T10:34:47;33.97;;;20.38;;
40367;SDS011;26075;43.320;21.920;2023-01-28T10:39:48;35.20;;;19.98;;
40367;SDS011;26075;43.320;21.920;2023-01-28T10:44:50;35.08;;;20.65;;
40367;SDS011;26075;43.320;21.920;2023-01-28T10:56:08;32.13;;;22.17;;
40367;SDS011;26075;43.320;21.920;2023-01-28T11:01:09;31.67;;;22.05;;
40367;SDS011;26075;43.320;21.920;2023-01-28T11:06:22;27.25;;;18.05;;
40367;SDS011;26075;43.320;21.920;2023-01-28T11:11:28;24.13;;;17.08;;
40367;SDS011;26075;43.320;21.920;2023-01-28T11:16:38;29.60;;;19.58;;
40367;SDS011;26075;43.320;21.920;2023-01-28T11:21:39;20.73;;;15.55;;
40367;SDS011;26075;43.320;21.920;2023-01-28T11:32:37;26.67;;;17.05;;
40367;SDS011;26075;43.320;21.920;2023-01-28T11:43:35;26.10;;;18.10;;
40367;SDS011;26075;43.320;21.920;2023-01-28T12:00:27;28.02;;;18.30;;
40367;SDS011;26075;43.320;21.920;2023-01-28T12:16:48;28.55;;;20.80;;
40367;SDS011;26075;43.320;21.920;2023-01-28T12:43:45;38.22;;;24.90;;
40367;SDS011;26075;43.320;21.920;2023-01-28T12:48:55;36.10;;;25.30;;
40367;SDS011;26075;43.320;21.920;2023-01-28T12:54:10;34.05;;;23.98;;
40367;SDS011;26075;43.320;21.920;2023-01-28T12:59:32;34.83;;;24.17;;
40367;SDS011;26075;43.320;21.920;2023-01-28T13:10:29;28.00;;;19.98;;
40367;SDS011;26075;43.320;21.920;2023-01-28T13:15:39;26.27;;;19.23;;
40367;SDS011;26075;43.320;21.920;2023-01-28T13:25:49;30.63;;;20.48;;
40367;SDS011;26075;43.320;21.920;2023-01-28T13:36:51;65.95;;;40.95;;
40367;SDS011;26075;43.320;21.920;2023-01-28T13:47:29;41.90;;;25.98;;
40367;SDS011;26075;43.320;21.920;2023-01-28T13:58:35;30.40;;;21.45;;
40367;SDS011;26075;43.320;21.920;2023-01-28T14:20:32;30.15;;;22.75;;
40367;SDS011;26075;43.320;21.920;2023-01-28T14:42:10;34.30;;;24.70;;
40367;SDS011;26075;43.320;21.920;2023-01-28T14:58:36;31.48;;;22.10;;
40367;SDS011;26075;43.320;21.920;2023-01-28T15:03:44;33.88;;;23.90;;
40367;SDS011;26075;43.320;21.920;2023-01-28T15:25:12;38.03;;;24.20;;
40367;SDS011;26075;43.320;21.920;2023-01-28T15:30:33;38.95;;;25.73;;
40367;SDS011;26075;43.320;21.920;2023-01-28T15:35:34;31.92;;;22.33;;
40367;SDS011;26075;43.320;21.920;2023-01-28T15:40:39;35.00;;;22.92;;
40367;SDS011;26075;43.320;21.920;2023-01-28T15:45:45;35.72;;;24.58;;
40367;SDS011;26075;43.320;21.920;2023-01-28T15:50:47;34.88;;;24.75;;
40367;SDS011;26075;43.320;21.920;2023-01-28T15:56:05;35.45;;;24.80;;
40367;SDS011;26075;43.320;21.920;2023-01-28T16:01:14;35.03;;;25.42;;
40367;SDS011;26075;43.320;21.920;2023-01-28T16:06:18;38.83;;;25.55;;
40367;SDS011;26075;43.320;21.920;2023-01-28T16:11:40;39.17;;;24.95;;
40367;SDS011;26075;43.320;21.920;2023-01-28T16:17:02;36.70;;;26.10;;
40367;SDS011;26075;43.320;21.920;2023-01-28T16:27:54;40.10;;;25.67;;
40367;SDS011;26075;43.320;21.920;2023-01-28T16:38:19;42.25;;;27.95;;
40367;SDS011;26075;43.320;21.920;2023-01-28T16:43:20;39.50;;;27.08;;
40367;SDS011;26075;43.320;21.920;2023-01-28T16:48:21;40.92;;;28.63;;
40367;SDS011;26075;43.320;21.920;2023-01-28T16:53:24;37.38;;;26.23;;
40367;SDS011;26075;43.320;21.920;2023-01-28T17:04:09;31.67;;;22.08;;
40367;SDS011;26075;43.320;21.920;2023-01-28T17:09:11;38.47;;;26.63;;
40367;SDS011;26075;43.320;21.920;2023-01-28T17:14:14;32.80;;;24.38;;
40367;SDS011;26075;43.320;21.920;2023-01-28T17:19:15;39.28;;;24.77;;
40367;SDS011;26075;43.320;21.920;2023-01-28T17:35:38;38.70;;;25.92;;
40367;SDS011;26075;43.320;21.920;2023-01-28T17:46:26;32.83;;;22.35;;
40367;SDS011;26075;43.320;21.920;2023-01-28T17:56:52;41.63;;;25.95;;
40367;SDS011;26075;43.320;21.920;2023-01-28T18:02:08;34.67;;;24.33;;
40367;SDS011;26075;43.320;21.920;2023-01-28T18:07:10;35.47;;;24.50;;
40367;SDS011;26075;43.320;21.920;2023-01-28T18:18:01;36.28;;;24.33;;
40367;SDS011;26075;43.320;21.920;2023-01-28T18:23:06;39.20;;;26.08;;
40367;SDS011;26075;43.320;21.920;2023-01-28T18:28:07;46.60;;;29.88;;
40367;SDS011;26075;43.320;21.920;2023-01-28T18:44:07;37.67;;;24.98;;
40367;SDS011;26075;43.320;21.920;2023-01-28T18:49:09;34.75;;;23.67;;
40367;SDS011;26075;43.320;21.920;2023-01-28T18:54:10;35.55;;;24.85;;
40367;SDS011;26075;43.320;21.920;2023-01-28T18:59:13;42.20;;;27.30;;
40367;SDS011;26075;43.320;21.920;2023-01-28T19:04:14;35.67;;;25.02;;
40367;SDS011;26075;43.320;21.920;2023-01-28T19:09:22;39.80;;;26.52;;
40367;SDS011;26075;43.320;21.920;2023-01-28T19:14:39;38.22;;;24.65;;
40367;SDS011;26075;43.320;21.920;2023-01-28T19:19:40;45.88;;;30.40;;
40367;SDS011;26075;43.320;21.920;2023-01-28T19:24:41;47.13;;;30.52;;
40367;SDS011;26075;43.320;21.920;2023-01-28T19:29:42;42.45;;;28.13;;
40367;SDS011;26075;43.320;21.920;2023-01-28T19:34:56;47.88;;;28.67;;
40367;SDS011;26075;43.320;21.920;2023-01-28T19:39:56;49.53;;;30.00;;
40367;SDS011;26075;43.320;21.920;2023-01-28T19:44:57;47.72;;;29.70;;
40367;SDS011;26075;43.320;21.920;2023-01-28T19:50:04;38.65;;;24.52;;
40367;SDS011;26075;43.320;21.920;2023-01-28T19:55:06;41.38;;;27.58;;
40367;SDS011;26075;43.320;21.920;2023-01-28T20:00:09;39.47;;;26.02;;
40367;SDS011;26075;43.320;21.920;2023-01-28T20:05:10;40.85;;;27.23;;
40367;SDS011;26075;43.320;21.920;2023-01-28T20:32:26;38.45;;;25.23;;
40367;SDS011;26075;43.320;21.920;2023-01-28T20:43:07;39.65;;;27.02;;
40367;SDS011;26075;43.320;21.920;2023-01-28T20:48:15;39.65;;;25.65;;
40367;SDS011;26075;43.320;21.920;2023-01-28T20:53:16;37.95;;;24.38;;
40367;SDS011;26075;43.320;21.920;2023-01-28T21:04:00;35.40;;;24.35;;
40367;SDS011;26075;43.320;21.920;2023-01-28T21:09:02;35.85;;;24.30;;
40367;SDS011;26075;43.320;21.920;2023-01-28T21:14:03;35.50;;;23.17;;
40367;SDS011;26075;43.320;21.920;2023-01-28T21:25:01;34.85;;;24.65;;
40367;SDS011;26075;43.320;21.920;2023-01-28T21:35:41;38.45;;;26.60;;
40367;SDS011;26075;43.320;21.920;2023-01-28T21:40:42;38.83;;;25.38;;
40367;SDS011;26075;43.320;21.920;2023-01-28T21:45:43;39.53;;;26.02;;
40367;SDS011;26075;43.320;21.920;2023-01-28T22:02:25;36.83;;;24.48;;
40367;SDS011;26075;43.320;21.920;2023-01-28T22:07:26;38.83;;;23.98;;
40367;SDS011;26075;43.320;21.920;2023-01-28T22:18:25;34.50;;;23.05;;
40367;SDS011;26075;43.320;21.920;2023-01-28T22:23:26;37.22;;;24.23;;
40367;SDS011;26075;43.320;21.920;2023-01-28T22:28:27;33.67;;;23.17;;
40367;SDS011;26075;43.320;21.920;2023-01-28T22:33:28;35.13;;;24.02;;
40367;SDS011;26075;43.320;21.920;2023-01-28T22:55:23;31.80;;;21.20;;
40367;SDS011;26075;43.320;21.920;2023-01-28T23:11:23;37.72;;;23.98;;
40367;SDS011;26075;43.320;21.920;2023-01-28T23:16:26;35.97;;;23.65;;
40367;SDS011;26075;43.320;21.920;2023-01-28T23:21:46;35.95;;;23.95;;
40367;SDS011;26075;43.320;21.920;2023-01-28T23:27:21;40.38;;;24.88;;
40367;SDS011;26075;43.320;21.920;2023-01-28T23:32:22;36.33;;;22.90;;
40367;SDS011;26075;43.320;21.920;2023-01-28T23:37:23;33.45;;;22.15;;
40367;SDS011;26075;43.320;21.920;2023-01-28T23:42:37;33.13;;;21.50;;
40367;SDS011;26075;43.320;21.920;2023-01-28T23:47:54;34.13;;;22.67;;
40367;SDS011;26075;43.320;21.920;2023-01-28T23:52:57;33.63;;;22.17;;
40367;SDS011;26075;43.320;21.920;2023-01-28T23:57:59;33.53;;;21.42;;
